Sindal Flyveplads, Denmark
Current Conditions -  °F | °C
As of 9:50 PM on Friday 19 Dec 2014 (Local Time) from EKYT Reporting Station
Few Clouds Few Clouds  
Wind Chill:   Ceiling: Unl
Heat Index:   Visibility: 6mi
Dew Point:   Wind: 18mph
Humidity: 87%   Direction: 250°WSW
Pressure: 29.41"   Gusts: NA
Location:  57.5°N, 10.22°E
Report Text: EKYT 192050Z 25016KT 9999 FEW032 05/03 Q0996
Loading
Personal Weather Stations






























Interactive Weather Map New forecast layout! Learn more

10-Day Weather Forecast

Advertisements
Track Severe Weather on mobile